sensor_id;sensor_type;location;lat;lon;timestamp;temperature;humidity
11152;DHT22;5630;49.342;10.802;2024-01-11T00:00:41;-3.80;99.90
11152;DHT22;5630;49.342;10.802;2024-01-11T00:03:07;-3.80;99.90
11152;DHT22;5630;49.342;10.802;2024-01-11T00:05:32;-3.80;99.90
11152;DHT22;5630;49.342;10.802;2024-01-11T00:07:58;-3.80;99.90
11152;DHT22;5630;49.342;10.802;2024-01-11T00:10:23;-3.80;99.90
11152;DHT22;5630;49.342;10.802;2024-01-11T00:12:49;-3.90;99.90
11152;DHT22;5630;49.342;10.802;2024-01-11T00:15:15;-3.80;99.90
11152;DHT22;5630;49.342;10.802;2024-01-11T00:17:40;-3.80;99.90
11152;DHT22;5630;49.342;10.802;2024-01-11T00:20:06;-3.90;99.90
11152;DHT22;5630;49.342;10.802;2024-01-11T00:22:32;-3.80;99.90
11152;DHT22;5630;49.342;10.802;2024-01-11T00:24:58;-3.80;99.90
11152;DHT22;5630;49.342;10.802;2024-01-11T00:27:23;-3.80;99.90
11152;DHT22;5630;49.342;10.802;2024-01-11T00:29:49;-3.90;99.90
11152;DHT22;5630;49.342;10.802;2024-01-11T00:32:14;-3.90;99.90
11152;DHT22;5630;49.342;10.802;2024-01-11T00:34:40;-3.90;99.90
11152;DHT22;5630;49.342;10.802;2024-01-11T00:37:05;-3.80;99.90
11152;DHT22;5630;49.342;10.802;2024-01-11T00:39:31;-3.80;99.90
11152;DHT22;5630;49.342;10.802;2024-01-11T00:41:56;-3.80;99.90
11152;DHT22;5630;49.342;10.802;2024-01-11T00:44:22;-3.80;99.90
11152;DHT22;5630;49.342;10.802;2024-01-11T00:46:48;-3.80;99.90
11152;DHT22;5630;49.342;10.802;2024-01-11T00:49:14;-3.90;99.90
11152;DHT22;5630;49.342;10.802;2024-01-11T00:51:39;-3.90;99.90
11152;DHT22;5630;49.342;10.802;2024-01-11T00:54:05;-3.90;99.90
11152;DHT22;5630;49.342;10.802;2024-01-11T00:56:30;-3.90;99.90
11152;DHT22;5630;49.342;10.802;2024-01-11T00:58:56;-3.90;99.90
11152;DHT22;5630;49.342;10.802;2024-01-11T01:01:22;-4.00;99.90
11152;DHT22;5630;49.342;10.802;2024-01-11T01:03:47;-4.00;99.90
11152;DHT22;5630;49.342;10.802;2024-01-11T01:06:13;-4.00;99.90
11152;DHT22;5630;49.342;10.802;2024-01-11T01:08:38;-4.00;99.90
11152;DHT22;5630;49.342;10.802;2024-01-11T01:11:04;-4.00;99.90
11152;DHT22;5630;49.342;10.802;2024-01-11T01:13:29;-4.00;99.90
11152;DHT22;5630;49.342;10.802;2024-01-11T01:15:55;-4.10;99.90
11152;DHT22;5630;49.342;10.802;2024-01-11T01:18:20;-4.10;99.90
11152;DHT22;5630;49.342;10.802;2024-01-11T01:20:46;-4.10;99.90
11152;DHT22;5630;49.342;10.802;2024-01-11T01:23:12;-4.20;99.90
11152;DHT22;5630;49.342;10.802;2024-01-11T01:25:37;-4.20;99.90
11152;DHT22;5630;49.342;10.802;2024-01-11T01:28:03;-4.20;99.90
11152;DHT22;5630;49.342;10.802;2024-01-11T01:30:29;-4.20;99.90
11152;DHT22;5630;49.342;10.802;2024-01-11T01:32:54;-4.20;99.90
11152;DHT22;5630;49.342;10.802;2024-01-11T01:35:20;-4.30;99.90
11152;DHT22;5630;49.342;10.802;2024-01-11T01:37:45;-4.30;99.90
11152;DHT22;5630;49.342;10.802;2024-01-11T01:40:12;-4.30;99.90
11152;DHT22;5630;49.342;10.802;2024-01-11T01:42:44;-4.30;99.90
11152;DHT22;5630;49.342;10.802;2024-01-11T01:45:10;-4.30;99.90
11152;DHT22;5630;49.342;10.802;2024-01-11T01:47:37;-4.30;99.90
11152;DHT22;5630;49.342;10.802;2024-01-11T01:50:04;-4.30;99.90
11152;DHT22;5630;49.342;10.802;2024-01-11T01:52:31;-4.30;99.90
11152;DHT22;5630;49.342;10.802;2024-01-11T01:54:58;-4.30;99.90
11152;DHT22;5630;49.342;10.802;2024-01-11T01:57:25;-4.30;99.90
11152;DHT22;5630;49.342;10.802;2024-01-11T01:59:52;-4.40;99.90
11152;DHT22;5630;49.342;10.802;2024-01-11T02:02:19;-4.30;99.90
11152;DHT22;5630;49.342;10.802;2024-01-11T02:04:45;-4.30;99.90
11152;DHT22;5630;49.342;10.802;2024-01-11T02:07:11;-4.40;99.90
11152;DHT22;5630;49.342;10.802;2024-01-11T02:09:37;-4.30;99.90
11152;DHT22;5630;49.342;10.802;2024-01-11T02:12:03;-4.40;99.90
11152;DHT22;5630;49.342;10.802;2024-01-11T02:14:28;-4.40;99.90
11152;DHT22;5630;49.342;10.802;2024-01-11T02:16:55;-4.40;99.90
11152;DHT22;5630;49.342;10.802;2024-01-11T02:19:20;-4.50;99.90
11152;DHT22;5630;49.342;10.802;2024-01-11T02:21:47;-4.40;99.90
11152;DHT22;5630;49.342;10.802;2024-01-11T02:24:14;-4.40;99.90
11152;DHT22;5630;49.342;10.802;2024-01-11T02:29:25;-4.40;99.90
11152;DHT22;5630;49.342;10.802;2024-01-11T02:31:50;-4.40;99.90
11152;DHT22;5630;49.342;10.802;2024-01-11T02:34:16;-4.40;99.90
11152;DHT22;5630;49.342;10.802;2024-01-11T02:36:42;-4.50;99.90
11152;DHT22;5630;49.342;10.802;2024-01-11T02:39:08;-4.50;99.90
11152;DHT22;5630;49.342;10.802;2024-01-11T02:41:35;-4.60;99.90
11152;DHT22;5630;49.342;10.802;2024-01-11T02:44:01;-4.60;99.90
11152;DHT22;5630;49.342;10.802;2024-01-11T02:46:26;-4.60;99.90
11152;DHT22;5630;49.342;10.802;2024-01-11T02:48:52;-4.80;99.90
11152;DHT22;5630;49.342;10.802;2024-01-11T02:51:18;-4.70;99.90
11152;DHT22;5630;49.342;10.802;2024-01-11T02:53:43;-4.70;99.90
11152;DHT22;5630;49.342;10.802;2024-01-11T02:56:09;-4.70;99.90
11152;DHT22;5630;49.342;10.802;2024-01-11T02:58:34;-4.60;99.90
11152;DHT22;5630;49.342;10.802;2024-01-11T03:01:00;-4.60;99.90
11152;DHT22;5630;49.342;10.802;2024-01-11T03:03:25;-4.60;99.90
11152;DHT22;5630;49.342;10.802;2024-01-11T03:05:51;-4.60;99.90
11152;DHT22;5630;49.342;10.802;2024-01-11T03:08:17;-4.60;99.90
11152;DHT22;5630;49.342;10.802;2024-01-11T03:10:42;-4.60;99.90
11152;DHT22;5630;49.342;10.802;2024-01-11T03:13:08;-4.60;99.90
11152;DHT22;5630;49.342;10.802;2024-01-11T03:15:33;-4.70;99.90
11152;DHT22;5630;49.342;10.802;2024-01-11T03:17:59;-4.70;99.90
11152;DHT22;5630;49.342;10.802;2024-01-11T03:20:25;-4.70;99.90
11152;DHT22;5630;49.342;10.802;2024-01-11T03:22:51;-4.70;99.90
11152;DHT22;5630;49.342;10.802;2024-01-11T03:25:17;-4.70;99.90
11152;DHT22;5630;49.342;10.802;2024-01-11T03:27:43;-4.70;99.90
11152;DHT22;5630;49.342;10.802;2024-01-11T03:30:09;-4.70;99.90
11152;DHT22;5630;49.342;10.802;2024-01-11T03:32:34;-4.70;99.90
11152;DHT22;5630;49.342;10.802;2024-01-11T03:35:00;-4.70;99.90
11152;DHT22;5630;49.342;10.802;2024-01-11T03:37:26;-4.80;99.90
11152;DHT22;5630;49.342;10.802;2024-01-11T03:39:51;-4.80;99.90
11152;DHT22;5630;49.342;10.802;2024-01-11T03:42:17;-4.80;99.90
11152;DHT22;5630;49.342;10.802;2024-01-11T03:44:42;-4.80;99.90
11152;DHT22;5630;49.342;10.802;2024-01-11T03:47:08;-4.80;99.90
11152;DHT22;5630;49.342;10.802;2024-01-11T03:49:33;-4.80;99.90
11152;DHT22;5630;49.342;10.802;2024-01-11T03:51:59;-4.80;99.90
11152;DHT22;5630;49.342;10.802;2024-01-11T03:54:24;-4.80;99.90
11152;DHT22;5630;49.342;10.802;2024-01-11T03:56:50;-4.80;99.90
11152;DHT22;5630;49.342;10.802;2024-01-11T03:59:16;-4.80;99.90
11152;DHT22;5630;49.342;10.802;2024-01-11T04:01:42;-4.80;99.90
11152;DHT22;5630;49.342;10.802;2024-01-11T04:04:08;-4.90;99.90
11152;DHT22;5630;49.342;10.802;2024-01-11T04:06:34;-4.90;99.90
11152;DHT22;5630;49.342;10.802;2024-01-11T04:08:59;-4.90;99.90
11152;DHT22;5630;49.342;10.802;2024-01-11T04:11:28;-5.00;99.90
11152;DHT22;5630;49.342;10.802;2024-01-11T04:13:54;-5.00;99.90
11152;DHT22;5630;49.342;10.802;2024-01-11T04:16:20;-5.00;99.90
11152;DHT22;5630;49.342;10.802;2024-01-11T04:18:46;-5.10;99.90
11152;DHT22;5630;49.342;10.802;2024-01-11T04:23:46;-5.10;99.90
11152;DHT22;5630;49.342;10.802;2024-01-11T04:26:12;-5.10;99.90
11152;DHT22;5630;49.342;10.802;2024-01-11T04:28:37;-5.20;99.90
11152;DHT22;5630;49.342;10.802;2024-01-11T04:31:03;-5.10;99.90
11152;DHT22;5630;49.342;10.802;2024-01-11T04:33:29;-5.10;99.90
11152;DHT22;5630;49.342;10.802;2024-01-11T04:35:54;-5.00;99.90
11152;DHT22;5630;49.342;10.802;2024-01-11T04:38:20;-5.10;99.90
11152;DHT22;5630;49.342;10.802;2024-01-11T04:40:45;-5.10;99.90
11152;DHT22;5630;49.342;10.802;2024-01-11T04:43:11;-5.00;99.90
11152;DHT22;5630;49.342;10.802;2024-01-11T04:45:37;-5.00;99.90
11152;DHT22;5630;49.342;10.802;2024-01-11T04:48:02;-5.00;99.90
11152;DHT22;5630;49.342;10.802;2024-01-11T04:50:28;-5.00;99.90
11152;DHT22;5630;49.342;10.802;2024-01-11T04:52:53;-5.00;99.90
11152;DHT22;5630;49.342;10.802;2024-01-11T04:55:19;-5.00;99.90
11152;DHT22;5630;49.342;10.802;2024-01-11T04:57:45;-5.10;99.90
11152;DHT22;5630;49.342;10.802;2024-01-11T05:00:10;-5.10;99.90
11152;DHT22;5630;49.342;10.802;2024-01-11T05:02:36;-5.10;99.90
11152;DHT22;5630;49.342;10.802;2024-01-11T05:05:02;-5.10;99.90
11152;DHT22;5630;49.342;10.802;2024-01-11T05:07:28;-5.20;99.90
11152;DHT22;5630;49.342;10.802;2024-01-11T05:09:53;-5.20;99.90
11152;DHT22;5630;49.342;10.802;2024-01-11T05:12:19;-5.10;99.90
11152;DHT22;5630;49.342;10.802;2024-01-11T05:14:44;-5.10;99.90
11152;DHT22;5630;49.342;10.802;2024-01-11T05:17:10;-5.10;99.90
11152;DHT22;5630;49.342;10.802;2024-01-11T05:19:35;-5.20;99.90
11152;DHT22;5630;49.342;10.802;2024-01-11T05:22:01;-5.10;99.90
11152;DHT22;5630;49.342;10.802;2024-01-11T05:24:26;-5.20;99.90
11152;DHT22;5630;49.342;10.802;2024-01-11T05:26:52;-5.20;99.90
11152;DHT22;5630;49.342;10.802;2024-01-11T05:29:18;-5.20;99.90
11152;DHT22;5630;49.342;10.802;2024-01-11T05:31:43;-5.30;99.90
11152;DHT22;5630;49.342;10.802;2024-01-11T05:34:09;-5.30;99.90
11152;DHT22;5630;49.342;10.802;2024-01-11T05:36:37;-5.40;99.90
11152;DHT22;5630;49.342;10.802;2024-01-11T05:39:03;-5.30;99.90
11152;DHT22;5630;49.342;10.802;2024-01-11T05:41:28;-5.40;99.90
11152;DHT22;5630;49.342;10.802;2024-01-11T05:43:54;-5.40;99.90
11152;DHT22;5630;49.342;10.802;2024-01-11T05:46:20;-5.40;99.90
11152;DHT22;5630;49.342;10.802;2024-01-11T05:48:45;-5.50;99.90
11152;DHT22;5630;49.342;10.802;2024-01-11T05:51:11;-5.50;99.90
11152;DHT22;5630;49.342;10.802;2024-01-11T05:53:36;-5.60;99.90
11152;DHT22;5630;49.342;10.802;2024-01-11T05:56:08;-5.40;99.90
11152;DHT22;5630;49.342;10.802;2024-01-11T05:58:34;-5.30;99.90
11152;DHT22;5630;49.342;10.802;2024-01-11T06:00:59;-5.10;99.90
11152;DHT22;5630;49.342;10.802;2024-01-11T06:03:25;-5.20;99.90
11152;DHT22;5630;49.342;10.802;2024-01-11T06:05:50;-5.20;99.90
11152;DHT22;5630;49.342;10.802;2024-01-11T06:08:16;-5.30;99.90
11152;DHT22;5630;49.342;10.802;2024-01-11T06:10:42;-5.30;99.90
11152;DHT22;5630;49.342;10.802;2024-01-11T06:13:07;-5.40;99.90
11152;DHT22;5630;49.342;10.802;2024-01-11T06:15:34;-5.40;99.90
11152;DHT22;5630;49.342;10.802;2024-01-11T06:18:00;-5.40;99.90
11152;DHT22;5630;49.342;10.802;2024-01-11T06:20:26;-5.40;99.90
11152;DHT22;5630;49.342;10.802;2024-01-11T06:22:51;-5.50;99.90
11152;DHT22;5630;49.342;10.802;2024-01-11T06:25:17;-5.60;99.90
11152;DHT22;5630;49.342;10.802;2024-01-11T06:27:44;-5.60;99.90
11152;DHT22;5630;49.342;10.802;2024-01-11T06:30:10;-5.60;99.90
11152;DHT22;5630;49.342;10.802;2024-01-11T06:32:35;-5.60;99.90
11152;DHT22;5630;49.342;10.802;2024-01-11T06:35:01;-5.60;99.90
11152;DHT22;5630;49.342;10.802;2024-01-11T06:37:28;-5.60;99.90
11152;DHT22;5630;49.342;10.802;2024-01-11T06:39:53;-5.60;99.90
11152;DHT22;5630;49.342;10.802;2024-01-11T06:42:19;-5.50;99.90
11152;DHT22;5630;49.342;10.802;2024-01-11T06:44:44;-5.50;99.90
11152;DHT22;5630;49.342;10.802;2024-01-11T06:47:10;-5.60;99.90
11152;DHT22;5630;49.342;10.802;2024-01-11T06:49:38;-5.60;99.90
11152;DHT22;5630;49.342;10.802;2024-01-11T06:52:05;-5.50;99.90
11152;DHT22;5630;49.342;10.802;2024-01-11T06:54:31;-5.50;99.90
11152;DHT22;5630;49.342;10.802;2024-01-11T06:56:57;-5.40;99.90
11152;DHT22;5630;49.342;10.802;2024-01-11T06:59:23;-5.50;99.90
11152;DHT22;5630;49.342;10.802;2024-01-11T07:01:49;-5.40;99.90
11152;DHT22;5630;49.342;10.802;2024-01-11T07:04:14;-5.40;99.90
11152;DHT22;5630;49.342;10.802;2024-01-11T07:06:40;-5.40;99.90
11152;DHT22;5630;49.342;10.802;2024-01-11T07:09:06;-5.30;99.90
11152;DHT22;5630;49.342;10.802;2024-01-11T07:11:32;-5.40;99.90
11152;DHT22;5630;49.342;10.802;2024-01-11T07:13:58;-5.40;99.90
11152;DHT22;5630;49.342;10.802;2024-01-11T07:16:23;-5.30;99.90
11152;DHT22;5630;49.342;10.802;2024-01-11T07:18:49;-5.40;99.90
11152;DHT22;5630;49.342;10.802;2024-01-11T07:21:24;-5.40;99.90
11152;DHT22;5630;49.342;10.802;2024-01-11T07:24:00;-5.40;99.90
11152;DHT22;5630;49.342;10.802;2024-01-11T07:26:26;-5.50;99.90
11152;DHT22;5630;49.342;10.802;2024-01-11T07:28:53;-5.40;99.90
11152;DHT22;5630;49.342;10.802;2024-01-11T07:31:20;-5.50;99.90
11152;DHT22;5630;49.342;10.802;2024-01-11T07:33:46;-5.50;99.90
11152;DHT22;5630;49.342;10.802;2024-01-11T07:36:11;-5.50;99.90
11152;DHT22;5630;49.342;10.802;2024-01-11T07:38:37;-5.50;99.90
11152;DHT22;5630;49.342;10.802;2024-01-11T07:41:03;-5.40;99.90
11152;DHT22;5630;49.342;10.802;2024-01-11T07:43:29;-5.40;99.90
11152;DHT22;5630;49.342;10.802;2024-01-11T07:45:55;-5.40;99.90
11152;DHT22;5630;49.342;10.802;2024-01-11T07:48:22;-5.40;99.90
11152;DHT22;5630;49.342;10.802;2024-01-11T07:50:48;-5.30;99.90
11152;DHT22;5630;49.342;10.802;2024-01-11T07:53:14;-5.30;99.90
11152;DHT22;5630;49.342;10.802;2024-01-11T07:55:40;-5.30;99.90
11152;DHT22;5630;49.342;10.802;2024-01-11T07:58:06;-5.30;99.90
11152;DHT22;5630;49.342;10.802;2024-01-11T08:00:32;-5.40;99.90
11152;DHT22;5630;49.342;10.802;2024-01-11T08:02:58;-5.40;99.90
11152;DHT22;5630;49.342;10.802;2024-01-11T08:05:23;-5.30;99.90
11152;DHT22;5630;49.342;10.802;2024-01-11T08:07:49;-5.40;99.90
11152;DHT22;5630;49.342;10.802;2024-01-11T08:10:15;-5.30;99.90
11152;DHT22;5630;49.342;10.802;2024-01-11T08:12:40;-5.20;99.90
11152;DHT22;5630;49.342;10.802;2024-01-11T08:15:06;-5.20;99.90
11152;DHT22;5630;49.342;10.802;2024-01-11T08:17:32;-5.00;99.90
11152;DHT22;5630;49.342;10.802;2024-01-11T08:19:57;-4.90;99.90
11152;DHT22;5630;49.342;10.802;2024-01-11T08:22:23;-5.00;99.90
11152;DHT22;5630;49.342;10.802;2024-01-11T08:24:49;-4.90;99.90
11152;DHT22;5630;49.342;10.802;2024-01-11T08:27:15;-4.80;99.90
11152;DHT22;5630;49.342;10.802;2024-01-11T08:29:43;-4.70;99.90
11152;DHT22;5630;49.342;10.802;2024-01-11T08:32:09;-4.60;99.90
11152;DHT22;5630;49.342;10.802;2024-01-11T08:34:34;-4.40;99.90
11152;DHT22;5630;49.342;10.802;2024-01-11T08:37:00;-4.30;99.90
11152;DHT22;5630;49.342;10.802;2024-01-11T08:39:25;-4.20;99.90
11152;DHT22;5630;49.342;10.802;2024-01-11T08:41:51;-4.10;99.90
11152;DHT22;5630;49.342;10.802;2024-01-11T08:44:18;-4.00;99.90
11152;DHT22;5630;49.342;10.802;2024-01-11T08:46:44;-3.90;99.90
11152;DHT22;5630;49.342;10.802;2024-01-11T08:49:10;-3.70;99.90
11152;DHT22;5630;49.342;10.802;2024-01-11T08:51:35;-3.60;99.90
11152;DHT22;5630;49.342;10.802;2024-01-11T08:54:01;-3.60;99.90
11152;DHT22;5630;49.342;10.802;2024-01-11T08:56:26;-3.60;99.90
11152;DHT22;5630;49.342;10.802;2024-01-11T08:58:53;-3.50;99.90
11152;DHT22;5630;49.342;10.802;2024-01-11T09:01:19;-3.30;99.90
11152;DHT22;5630;49.342;10.802;2024-01-11T09:03:44;-3.30;99.90
11152;DHT22;5630;49.342;10.802;2024-01-11T09:06:10;-3.20;99.90
11152;DHT22;5630;49.342;10.802;2024-01-11T09:08:36;-3.10;99.90
11152;DHT22;5630;49.342;10.802;2024-01-11T09:11:02;-3.20;99.90
11152;DHT22;5630;49.342;10.802;2024-01-11T09:13:28;-3.00;99.90
11152;DHT22;5630;49.342;10.802;2024-01-11T09:15:54;-3.00;99.90
11152;DHT22;5630;49.342;10.802;2024-01-11T09:18:20;-2.90;99.90
11152;DHT22;5630;49.342;10.802;2024-01-11T09:20:47;-3.00;99.90
11152;DHT22;5630;49.342;10.802;2024-01-11T09:23:13;-2.90;99.90
11152;DHT22;5630;49.342;10.802;2024-01-11T09:25:39;-2.80;99.90
11152;DHT22;5630;49.342;10.802;2024-01-11T09:28:05;-2.70;99.90
11152;DHT22;5630;49.342;10.802;2024-01-11T09:30:31;-2.60;99.90
11152;DHT22;5630;49.342;10.802;2024-01-11T09:32:57;-2.50;99.90
11152;DHT22;5630;49.342;10.802;2024-01-11T09:35:23;-2.30;99.90
11152;DHT22;5630;49.342;10.802;2024-01-11T09:37:49;-2.20;99.90
11152;DHT22;5630;49.342;10.802;2024-01-11T09:40:15;-2.10;99.90
11152;DHT22;5630;49.342;10.802;2024-01-11T09:42:41;-2.00;99.90
11152;DHT22;5630;49.342;10.802;2024-01-11T09:45:17;-2.00;99.90
11152;DHT22;5630;49.342;10.802;2024-01-11T09:47:44;-1.90;99.90
11152;DHT22;5630;49.342;10.802;2024-01-11T09:50:11;-1.80;99.90
11152;DHT22;5630;49.342;10.802;2024-01-11T09:52:45;-1.90;99.90
11152;DHT22;5630;49.342;10.802;2024-01-11T09:55:11;-1.80;99.90
11152;DHT22;5630;49.342;10.802;2024-01-11T09:57:45;-1.70;99.90
11152;DHT22;5630;49.342;10.802;2024-01-11T10:00:16;-1.60;99.90
11152;DHT22;5630;49.342;10.802;2024-01-11T10:02:41;-1.60;99.90
11152;DHT22;5630;49.342;10.802;2024-01-11T10:05:07;-1.80;99.90
11152;DHT22;5630;49.342;10.802;2024-01-11T10:07:34;-1.50;99.90
11152;DHT22;5630;49.342;10.802;2024-01-11T10:10:00;-1.80;99.90
11152;DHT22;5630;49.342;10.802;2024-01-11T10:12:27;-1.80;99.90
11152;DHT22;5630;49.342;10.802;2024-01-11T10:14:53;-1.60;99.90
11152;DHT22;5630;49.342;10.802;2024-01-11T10:17:18;-1.50;99.90
11152;DHT22;5630;49.342;10.802;2024-01-11T10:19:44;-1.10;99.90
11152;DHT22;5630;49.342;10.802;2024-01-11T10:22:10;-0.70;99.90
11152;DHT22;5630;49.342;10.802;2024-01-11T10:24:41;-0.40;99.90
11152;DHT22;5630;49.342;10.802;2024-01-11T10:27:09;0.00;99.90
11152;DHT22;5630;49.342;10.802;2024-01-11T10:29:35;0.20;99.90
11152;DHT22;5630;49.342;10.802;2024-01-11T10:32:03;0.20;99.90
11152;DHT22;5630;49.342;10.802;2024-01-11T10:34:29;0.40;99.90
11152;DHT22;5630;49.342;10.802;2024-01-11T10:36:54;0.60;99.90
11152;DHT22;5630;49.342;10.802;2024-01-11T10:39:24;0.70;99.90
11152;DHT22;5630;49.342;10.802;2024-01-11T10:41:52;0.80;99.90
11152;DHT22;5630;49.342;10.802;2024-01-11T10:44:21;0.50;99.90
11152;DHT22;5630;49.342;10.802;2024-01-11T10:49:17;0.30;99.90
11152;DHT22;5630;49.342;10.802;2024-01-11T10:51:47;0.70;99.90
11152;DHT22;5630;49.342;10.802;2024-01-11T10:54:15;0.90;99.90
11152;DHT22;5630;49.342;10.802;2024-01-11T10:56:42;1.20;99.90
11152;DHT22;5630;49.342;10.802;2024-01-11T10:59:11;1.40;99.90
11152;DHT22;5630;49.342;10.802;2024-01-11T11:01:39;1.60;99.90
11152;DHT22;5630;49.342;10.802;2024-01-11T11:04:06;1.70;99.90
11152;DHT22;5630;49.342;10.802;2024-01-11T11:06:34;1.90;99.90
11152;DHT22;5630;49.342;10.802;2024-01-11T11:09:01;2.00;99.90
11152;DHT22;5630;49.342;10.802;2024-01-11T11:11:30;2.20;99.90
11152;DHT22;5630;49.342;10.802;2024-01-11T11:13:58;2.20;99.90
11152;DHT22;5630;49.342;10.802;2024-01-11T11:16:26;2.40;99.90
11152;DHT22;5630;49.342;10.802;2024-01-11T11:18:55;2.50;99.90
11152;DHT22;5630;49.342;10.802;2024-01-11T11:21:21;2.60;99.90
11152;DHT22;5630;49.342;10.802;2024-01-11T11:23:49;2.70;99.90
11152;DHT22;5630;49.342;10.802;2024-01-11T11:26:16;2.70;99.90
11152;DHT22;5630;49.342;10.802;2024-01-11T11:28:45;2.90;99.90
11152;DHT22;5630;49.342;10.802;2024-01-11T11:31:13;2.80;99.90
11152;DHT22;5630;49.342;10.802;2024-01-11T11:33:40;2.90;99.90
11152;DHT22;5630;49.342;10.802;2024-01-11T11:36:12;3.00;99.90
11152;DHT22;5630;49.342;10.802;2024-01-11T11:38:38;3.20;99.90
11152;DHT22;5630;49.342;10.802;2024-01-11T11:41:04;3.10;99.90
11152;DHT22;5630;49.342;10.802;2024-01-11T11:43:31;3.30;99.90
11152;DHT22;5630;49.342;10.802;2024-01-11T11:45:57;3.40;99.90
11152;DHT22;5630;49.342;10.802;2024-01-11T11:51:08;3.40;99.90
11152;DHT22;5630;49.342;10.802;2024-01-11T11:53:35;3.60;99.90
11152;DHT22;5630;49.342;10.802;2024-01-11T11:56:01;3.80;99.90
11152;DHT22;5630;49.342;10.802;2024-01-11T11:58:31;3.60;99.90
11152;DHT22;5630;49.342;10.802;2024-01-11T12:00:58;3.60;99.90
11152;DHT22;5630;49.342;10.802;2024-01-11T12:03:32;3.50;99.90
11152;DHT22;5630;49.342;10.802;2024-01-11T12:05:59;3.30;99.90
11152;DHT22;5630;49.342;10.802;2024-01-11T12:08:25;3.20;99.90
11152;DHT22;5630;49.342;10.802;2024-01-11T12:10:52;2.90;99.90
11152;DHT22;5630;49.342;10.802;2024-01-11T12:13:20;3.10;99.90
11152;DHT22;5630;49.342;10.802;2024-01-11T12:15:46;3.20;99.90
11152;DHT22;5630;49.342;10.802;2024-01-11T12:18:12;2.80;99.90
11152;DHT22;5630;49.342;10.802;2024-01-11T12:20:38;3.00;99.90
11152;DHT22;5630;49.342;10.802;2024-01-11T12:23:04;3.20;99.90
11152;DHT22;5630;49.342;10.802;2024-01-11T12:25:31;3.40;99.90
11152;DHT22;5630;49.342;10.802;2024-01-11T12:27:57;3.30;99.90
11152;DHT22;5630;49.342;10.802;2024-01-11T12:30:26;3.40;99.90
11152;DHT22;5630;49.342;10.802;2024-01-11T12:32:53;3.20;99.90
11152;DHT22;5630;49.342;10.802;2024-01-11T12:35:20;3.20;99.90
11152;DHT22;5630;49.342;10.802;2024-01-11T12:37:55;3.20;99.90
11152;DHT22;5630;49.342;10.802;2024-01-11T12:40:21;3.10;99.90
11152;DHT22;5630;49.342;10.802;2024-01-11T12:42:47;3.20;99.90
11152;DHT22;5630;49.342;10.802;2024-01-11T12:45:16;3.30;99.90
11152;DHT22;5630;49.342;10.802;2024-01-11T12:47:41;3.40;99.90
11152;DHT22;5630;49.342;10.802;2024-01-11T12:50:07;3.40;99.90
11152;DHT22;5630;49.342;10.802;2024-01-11T12:52:33;3.50;99.90
11152;DHT22;5630;49.342;10.802;2024-01-11T12:54:58;3.40;99.90
11152;DHT22;5630;49.342;10.802;2024-01-11T12:57:25;3.40;99.90
11152;DHT22;5630;49.342;10.802;2024-01-11T12:59:52;3.30;99.90
11152;DHT22;5630;49.342;10.802;2024-01-11T13:02:18;3.20;99.90
11152;DHT22;5630;49.342;10.802;2024-01-11T13:04:45;3.20;99.90
11152;DHT22;5630;49.342;10.802;2024-01-11T13:07:14;3.20;99.90
11152;DHT22;5630;49.342;10.802;2024-01-11T13:09:41;3.00;99.90
11152;DHT22;5630;49.342;10.802;2024-01-11T13:12:07;3.00;99.90
11152;DHT22;5630;49.342;10.802;2024-01-11T13:14:32;3.10;99.90
11152;DHT22;5630;49.342;10.802;2024-01-11T13:16:59;3.10;99.90
11152;DHT22;5630;49.342;10.802;2024-01-11T13:19:25;3.00;99.90
11152;DHT22;5630;49.342;10.802;2024-01-11T13:21:50;2.90;99.90
11152;DHT22;5630;49.342;10.802;2024-01-11T13:24:17;2.60;99.90
11152;DHT22;5630;49.342;10.802;2024-01-11T13:26:43;2.50;99.90
11152;DHT22;5630;49.342;10.802;2024-01-11T13:29:08;2.50;99.90
11152;DHT22;5630;49.342;10.802;2024-01-11T13:31:36;2.30;99.90
11152;DHT22;5630;49.342;10.802;2024-01-11T13:34:02;2.30;99.90
11152;DHT22;5630;49.342;10.802;2024-01-11T13:36:28;2.20;99.90
11152;DHT22;5630;49.342;10.802;2024-01-11T13:38:54;2.30;99.90
11152;DHT22;5630;49.342;10.802;2024-01-11T13:41:20;2.10;99.90
11152;DHT22;5630;49.342;10.802;2024-01-11T13:43:46;2.20;99.90
11152;DHT22;5630;49.342;10.802;2024-01-11T13:46:11;2.20;99.90
11152;DHT22;5630;49.342;10.802;2024-01-11T13:48:40;2.10;99.90
11152;DHT22;5630;49.342;10.802;2024-01-11T13:51:05;2.00;99.90
11152;DHT22;5630;49.342;10.802;2024-01-11T13:53:32;2.00;99.90
11152;DHT22;5630;49.342;10.802;2024-01-11T13:55:58;1.90;99.90
11152;DHT22;5630;49.342;10.802;2024-01-11T13:58:24;1.90;99.90
11152;DHT22;5630;49.342;10.802;2024-01-11T14:00:49;1.80;99.90
11152;DHT22;5630;49.342;10.802;2024-01-11T14:03:15;1.80;99.90
11152;DHT22;5630;49.342;10.802;2024-01-11T14:05:41;1.60;99.90
11152;DHT22;5630;49.342;10.802;2024-01-11T14:08:07;1.60;99.90
11152;DHT22;5630;49.342;10.802;2024-01-11T14:10:33;1.70;99.90
11152;DHT22;5630;49.342;10.802;2024-01-11T14:13:00;1.50;99.90
11152;DHT22;5630;49.342;10.802;2024-01-11T14:15:27;1.60;99.90
11152;DHT22;5630;49.342;10.802;2024-01-11T14:17:53;1.60;99.90
11152;DHT22;5630;49.342;10.802;2024-01-11T14:20:19;1.70;99.90
11152;DHT22;5630;49.342;10.802;2024-01-11T14:22:46;1.80;99.90
11152;DHT22;5630;49.342;10.802;2024-01-11T14:25:18;1.70;99.90
11152;DHT22;5630;49.342;10.802;2024-01-11T14:27:44;1.70;99.90
11152;DHT22;5630;49.342;10.802;2024-01-11T14:30:11;2.30;99.90
11152;DHT22;5630;49.342;10.802;2024-01-11T14:32:37;2.20;99.90
11152;DHT22;5630;49.342;10.802;2024-01-11T14:35:03;2.10;99.90
11152;DHT22;5630;49.342;10.802;2024-01-11T14:37:34;2.10;99.90
11152;DHT22;5630;49.342;10.802;2024-01-11T14:40:00;2.00;99.90
11152;DHT22;5630;49.342;10.802;2024-01-11T14:42:26;1.90;99.90
11152;DHT22;5630;49.342;10.802;2024-01-11T14:44:52;1.70;99.90
11152;DHT22;5630;49.342;10.802;2024-01-11T14:47:18;1.60;99.90
11152;DHT22;5630;49.342;10.802;2024-01-11T14:49:45;1.60;99.90
11152;DHT22;5630;49.342;10.802;2024-01-11T14:52:10;1.60;99.90
11152;DHT22;5630;49.342;10.802;2024-01-11T14:54:36;1.50;99.90
11152;DHT22;5630;49.342;10.802;2024-01-11T14:57:01;1.50;99.90
11152;DHT22;5630;49.342;10.802;2024-01-11T14:59:28;1.40;99.90
11152;DHT22;5630;49.342;10.802;2024-01-11T15:01:53;1.20;99.90
11152;DHT22;5630;49.342;10.802;2024-01-11T15:04:19;1.20;99.90
11152;DHT22;5630;49.342;10.802;2024-01-11T15:06:44;1.00;99.90
11152;DHT22;5630;49.342;10.802;2024-01-11T15:09:10;1.10;99.90
11152;DHT22;5630;49.342;10.802;2024-01-11T15:11:38;1.10;99.90
11152;DHT22;5630;49.342;10.802;2024-01-11T15:14:05;1.00;99.90
11152;DHT22;5630;49.342;10.802;2024-01-11T15:16:31;1.10;99.90
11152;DHT22;5630;49.342;10.802;2024-01-11T15:18:56;1.10;99.90
11152;DHT22;5630;49.342;10.802;2024-01-11T15:21:22;1.20;99.90
11152;DHT22;5630;49.342;10.802;2024-01-11T15:23:47;1.10;99.90
11152;DHT22;5630;49.342;10.802;2024-01-11T15:26:13;1.10;99.90
11152;DHT22;5630;49.342;10.802;2024-01-11T15:28:39;1.10;99.90
11152;DHT22;5630;49.342;10.802;2024-01-11T15:31:05;1.10;99.90
11152;DHT22;5630;49.342;10.802;2024-01-11T15:33:31;1.10;99.90
11152;DHT22;5630;49.342;10.802;2024-01-11T15:35:57;1.10;99.90
11152;DHT22;5630;49.342;10.802;2024-01-11T15:38:22;1.10;99.90